METAR AND TAF INFORMATION
METAR FOR PWAK
ADDS - METARS form results

(0014 UTC 25 March 2019)
Data provider http://aviationweather.gov/metar/data/
 
Forecast for: PWAK (WAKE ISLAND AIRF, UM, US)
Text: TAF PWAK 242200Z 2422/2604 06009KT 9999 SCT040 QNH2995INS TX31/2502Z TN22/2516Z
Forecast period: 2200 UTC 24 March 2019 to 0400 UTC 26 March 2019
Forecast type: FROM: standard forecast or significant change
Winds: from the ENE (60 degrees) at 10 MPH (9 knots; 4.6 m/s)
Visibility: 6 or more miles 10+ km)
Ceiling: at least 12,000 feet AGL
Clouds: scattered clouds at 4000 feet AGL
Weather: no significant weather forecast for this period

 AIRPORT MAP

 RUNWAY INFORMATION
Runway 10 Runway length 9843 ft Runway width 150 ft
Runway elevation 14 ft Runway displaced threshold 0 ft Runway heading 95
Runway 28 Runway length 9843 ft Runway width 150 ft
Runway elevation 12 ft Runway displaced threshold 0 ft Runway heading 275

 AIRPORT FREQUENCIES
Type A/G Name OPS AAS Frequency 128 MHZ
Type RDO Name OAKLAND OC Frequency 884.3 MHZ

 AIRPORT NEAR NAVIGATION AIDS
Type VORTAC Name Wake Island Frequency 113500 KHZ



Powered by Virtual Airlines Manager [v2.6.2]